createdAt,value
2022-11-30T00:00:29.443Z,3.83
2022-11-30T00:03:00.870Z,3.72
2022-11-30T00:05:33.931Z,3.70
2022-11-30T00:08:05.520Z,3.25
2022-11-30T00:10:36.250Z,3.40
2022-11-30T00:13:06.780Z,3.17
2022-11-30T00:15:38.669Z,3.28
2022-11-30T00:18:08.841Z,2.97
2022-11-30T00:20:41.073Z,2.92
2022-11-30T00:23:11.473Z,3.40
2022-11-30T00:25:42.282Z,3.10
2022-11-30T00:28:12.736Z,2.90
2022-11-30T00:30:43.085Z,2.55
2022-11-30T00:33:13.482Z,2.90
2022-11-30T00:35:46.550Z,2.72
2022-11-30T00:38:17.168Z,2.70
2022-11-30T00:40:47.633Z,2.55
2022-11-30T00:43:17.664Z,2.67
2022-11-30T00:45:48.301Z,2.50
2022-11-30T00:48:18.909Z,2.53
2022-11-30T00:50:51.551Z,2.35
2022-11-30T00:53:23.392Z,2.28
2022-11-30T00:55:53.754Z,2.50
2022-11-30T00:58:23.565Z,2.60
2022-11-30T01:00:54.328Z,2.33
2022-11-30T01:03:24.395Z,2.80
2022-11-30T01:05:56.882Z,2.40
2022-11-30T01:08:27.089Z,2.28
2022-11-30T01:10:58.262Z,2.38
2022-11-30T01:13:29.221Z,2.40
2022-11-30T01:16:00.274Z,2.22
2022-11-30T01:18:30.377Z,2.40
2022-11-30T01:21:02.983Z,2.30
2022-11-30T01:23:33.438Z,2.20
2022-11-30T01:26:03.573Z,2.25
2022-11-30T01:28:34.497Z,2.30
2022-11-30T01:31:07.920Z,2.50
2022-11-30T01:33:39.141Z,2.30
2022-11-30T01:36:16.605Z,2.10
2022-11-30T01:38:49.903Z,2.22
2022-11-30T01:41:24.678Z,2.00
2022-11-30T01:43:59.094Z,2.03
2022-11-30T01:46:36.900Z,2.25
2022-11-30T01:49:18.576Z,2.30
2022-11-30T01:52:01.010Z,2.10
2022-11-30T01:54:38.872Z,2.10
2022-11-30T01:57:30.713Z,2.20
2022-11-30T02:00:05.334Z,2.40
2022-11-30T02:02:46.548Z,2.20
2022-11-30T02:05:18.797Z,2.03
2022-11-30T02:07:51.864Z,2.10
2022-11-30T02:10:30.766Z,2.25
2022-11-30T02:13:36.410Z,2.22
2022-11-30T02:16:20.743Z,1.67
2022-11-30T02:19:10.295Z,1.88
2022-11-30T02:21:50.700Z,2.03
2022-11-30T02:24:55.232Z,1.95
2022-11-30T02:27:47.987Z,1.90
2022-11-30T02:30:25.256Z,1.55
2022-11-30T02:33:03.901Z,1.90
2022-11-30T02:35:40.458Z,2.10
2022-11-30T02:38:12.093Z,1.90
2022-11-30T02:40:42.179Z,1.92
2022-11-30T02:43:12.789Z,1.92
2022-11-30T02:45:55.714Z,2.10
2022-11-30T02:48:35.256Z,2.05
2022-11-30T02:51:13.322Z,1.92
2022-11-30T02:53:46.161Z,2.00
2022-11-30T02:56:17.239Z,2.10
2022-11-30T02:58:48.034Z,1.92
2022-11-30T03:01:20.642Z,1.95
2022-11-30T03:03:51.394Z,1.95
2022-11-30T03:06:21.963Z,1.92
2022-11-30T03:08:52.498Z,1.95
2022-11-30T03:11:23.231Z,1.90
2022-11-30T03:13:53.957Z,1.90
2022-11-30T03:16:26.409Z,1.77
2022-11-30T03:18:57.453Z,1.67
2022-11-30T03:21:28.330Z,1.70
2022-11-30T03:23:58.226Z,1.65
2022-11-30T03:26:28.809Z,1.83
2022-11-30T03:28:58.931Z,2.05
2022-11-30T03:31:30.756Z,1.92
2022-11-30T03:34:01.563Z,1.85
2022-11-30T03:36:31.567Z,1.80
2022-11-30T03:39:12.318Z,2.05
2022-11-30T03:41:42.616Z,1.90
2022-11-30T03:44:12.243Z,2.10
2022-11-30T03:46:44.901Z,1.95
2022-11-30T03:49:15.674Z,1.80
2022-11-30T03:51:46.429Z,1.83
2022-11-30T03:54:17.119Z,1.70
2022-11-30T03:56:47.601Z,1.80
2022-11-30T03:59:19.921Z,1.95
2022-11-30T04:02:06.783Z,1.60
2022-11-30T04:04:37.597Z,1.65
2022-11-30T04:07:08.212Z,1.80
2022-11-30T04:09:38.908Z,1.70
2022-11-30T04:12:10.293Z,1.67
2022-11-30T04:14:40.946Z,1.80
2022-11-30T04:17:13.652Z,1.88
2022-11-30T04:19:44.230Z,1.70
2022-11-30T04:22:14.777Z,1.70
2022-11-30T04:24:44.684Z,1.70
2022-11-30T04:27:15.342Z,1.90
2022-11-30T04:29:46.215Z,1.88
2022-11-30T04:32:18.832Z,1.75
2022-11-30T04:34:49.663Z,1.90
2022-11-30T04:37:19.840Z,1.58
2022-11-30T04:39:50.537Z,1.50
2022-11-30T04:42:21.431Z,1.58
2022-11-30T04:44:51.905Z,1.77
2022-11-30T04:47:24.136Z,1.80
2022-11-30T04:49:54.262Z,1.73
2022-11-30T04:52:24.848Z,1.88
2022-11-30T04:54:56.654Z,1.70
2022-11-30T04:57:26.938Z,1.70
2022-11-30T04:59:57.041Z,1.58
2022-11-30T05:02:31.880Z,1.67
2022-11-30T05:05:03.128Z,1.58
2022-11-30T05:07:33.777Z,1.70
2022-11-30T05:10:04.498Z,1.60
2022-11-30T05:12:34.961Z,1.58
2022-11-30T05:15:06.293Z,1.50
2022-11-30T05:17:37.939Z,1.75
2022-11-30T05:20:10.581Z,1.70
2022-11-30T05:22:41.154Z,1.58
2022-11-30T05:25:13.011Z,1.52
2022-11-30T05:27:43.053Z,1.65
2022-11-30T05:30:14.514Z,1.50
2022-11-30T05:32:47.172Z,1.77
2022-11-30T05:35:17.910Z,1.70
2022-11-30T05:37:47.997Z,1.52
2022-11-30T05:40:18.868Z,1.60
2022-11-30T05:42:49.406Z,1.80
2022-11-30T05:45:20.249Z,1.63
2022-11-30T05:47:53.226Z,1.88
2022-11-30T05:50:23.661Z,1.80
2022-11-30T05:52:56.735Z,1.70
2022-11-30T05:55:27.011Z,1.75
2022-11-30T05:57:57.755Z,1.50
2022-11-30T06:00:28.575Z,1.70
2022-11-30T06:03:01.893Z,1.70
2022-11-30T06:05:32.796Z,1.75
2022-11-30T06:08:03.732Z,1.60
2022-11-30T06:10:34.641Z,1.60
2022-11-30T06:13:10.708Z,1.60
2022-11-30T06:15:41.624Z,1.83
2022-11-30T06:18:16.458Z,1.80
2022-11-30T06:20:47.344Z,1.60
2022-11-30T06:23:17.218Z,1.77
2022-11-30T06:25:47.307Z,1.75
2022-11-30T06:28:17.218Z,1.60
2022-11-30T06:30:47.696Z,1.63
2022-11-30T06:33:25.553Z,1.65
2022-11-30T06:35:56.083Z,1.55
2022-11-30T06:38:26.617Z,1.70
2022-11-30T06:40:57.406Z,1.67
2022-11-30T06:43:27.304Z,1.63
2022-11-30T06:45:58.128Z,1.70
2022-11-30T06:48:30.778Z,1.80
2022-11-30T06:51:01.321Z,1.80
2022-11-30T06:53:31.668Z,1.65
2022-11-30T06:56:06.859Z,1.60
2022-11-30T06:58:41.082Z,1.70
2022-11-30T07:01:15.745Z,1.52
2022-11-30T07:03:47.880Z,1.77
2022-11-30T07:06:19.147Z,1.80
2022-11-30T07:08:50.341Z,1.60
2022-11-30T07:11:20.828Z,1.80
2022-11-30T07:13:52.589Z,1.40
2022-11-30T07:16:22.672Z,1.58
2022-11-30T07:18:55.308Z,1.70
2022-11-30T07:21:25.034Z,1.80
2022-11-30T07:24:12.904Z,1.60
2022-11-30T07:26:46.294Z,1.70
2022-11-30T07:29:18.305Z,1.90
2022-11-30T07:31:56.058Z,1.52
2022-11-30T07:34:29.754Z,1.60
2022-11-30T07:37:03.220Z,1.67
2022-11-30T07:39:37.199Z,1.80
2022-11-30T07:42:12.959Z,1.83
2022-11-30T07:44:45.776Z,1.60
2022-11-30T07:47:20.468Z,1.60
2022-11-30T07:49:57.177Z,1.60
2022-11-30T07:52:31.029Z,1.52
2022-11-30T07:55:04.272Z,1.63
2022-11-30T07:57:36.944Z,1.70
2022-11-30T08:00:12.209Z,1.75
2022-11-30T08:02:43.373Z,1.65
2022-11-30T08:05:18.549Z,1.77
2022-11-30T08:07:55.442Z,1.42
2022-11-30T08:10:30.190Z,1.50
2022-11-30T08:13:02.951Z,1.63
2022-11-30T08:15:34.685Z,1.48
2022-11-30T08:18:08.411Z,1.77
2022-11-30T08:20:49.685Z,1.70
2022-11-30T08:23:20.492Z,1.88
2022-11-30T08:25:52.619Z,1.67
2022-11-30T08:28:24.043Z,1.50
2022-11-30T08:30:55.766Z,1.50
2022-11-30T08:33:30.624Z,1.60
2022-11-30T08:36:13.902Z,1.70
2022-11-30T08:38:48.294Z,1.77
2022-11-30T08:41:23.811Z,1.38
2022-11-30T08:43:57.055Z,1.30
2022-11-30T08:49:24.788Z,1.55
2022-11-30T08:52:17.440Z,1.60
2022-11-30T08:54:52.972Z,1.48
2022-11-30T08:57:28.960Z,1.80
2022-11-30T09:00:01.165Z,1.95
2022-11-30T09:02:35.384Z,1.70
2022-11-30T09:05:07.334Z,1.60
2022-11-30T09:07:42.388Z,1.70
2022-11-30T09:10:23.490Z,1.40
2022-11-30T09:12:55.083Z,1.35
2022-11-30T09:15:26.829Z,1.70
2022-11-30T09:18:00.859Z,1.48
2022-11-30T09:20:34.347Z,1.38
2022-11-30T09:23:07.639Z,1.30
2022-11-30T09:25:38.767Z,1.35
2022-11-30T09:28:12.257Z,1.52
2022-11-30T09:30:45.746Z,1.40
2022-11-30T09:33:16.452Z,1.40
2022-11-30T09:35:47.125Z,1.45
2022-11-30T09:38:18.925Z,1.50
2022-11-30T09:40:56.551Z,1.73
2022-11-30T09:43:44.719Z,1.48
2022-11-30T09:46:16.388Z,1.60
2022-11-30T09:49:02.744Z,1.17
2022-11-30T09:51:47.989Z,1.30
2022-11-30T09:54:35.738Z,1.30
2022-11-30T09:57:26.558Z,1.20
2022-11-30T10:00:00.891Z,1.20
2022-11-30T10:02:36.522Z,1.27
2022-11-30T10:05:15.590Z,1.20
2022-11-30T10:08:10.731Z,1.15
2022-11-30T10:10:49.013Z,1.30
2022-11-30T10:13:43.160Z,1.40
2022-11-30T10:16:28.303Z,1.30
2022-11-30T10:19:15.783Z,1.20
2022-11-30T10:22:10.957Z,1.48
2022-11-30T10:25:11.453Z,1.40
2022-11-30T10:27:54.361Z,1.15
2022-11-30T10:30:27.137Z,1.30
2022-11-30T10:33:03.126Z,1.15
2022-11-30T10:35:43.036Z,1.20
2022-11-30T10:38:22.460Z,1.10
2022-11-30T10:41:00.610Z,1.27
2022-11-30T10:43:40.278Z,1.30
2022-11-30T10:46:21.435Z,1.25
2022-11-30T10:48:59.955Z,1.33
2022-11-30T10:51:31.088Z,1.13
2022-11-30T10:54:01.938Z,1.20
2022-11-30T10:56:32.264Z,1.15
2022-11-30T10:59:14.399Z,1.40
2022-11-30T11:01:44.998Z,1.10
2022-11-30T11:04:21.174Z,1.25
2022-11-30T11:06:56.116Z,0.85
2022-11-30T11:09:38.009Z,1.02
2022-11-30T11:12:17.531Z,1.17
2022-11-30T11:14:50.228Z,1.27
2022-11-30T11:17:29.540Z,1.08
2022-11-30T11:19:59.938Z,0.93
2022-11-30T11:22:34.528Z,0.90
2022-11-30T11:25:23.525Z,1.00
2022-11-30T11:27:58.160Z,1.02
2022-11-30T11:30:35.680Z,1.30
2022-11-30T11:33:22.338Z,1.20
2022-11-30T11:35:55.239Z,1.17
2022-11-30T11:38:30.161Z,1.13
2022-11-30T11:41:05.503Z,1.10
2022-11-30T11:43:42.846Z,1.15
2022-11-30T11:46:16.828Z,1.10
2022-11-30T11:49:00.188Z,0.98
2022-11-30T11:51:36.341Z,1.02
2022-11-30T11:54:30.435Z,1.02
2022-11-30T11:57:02.375Z,0.93
2022-11-30T11:59:49.996Z,1.20
2022-11-30T12:02:36.364Z,1.10
2022-11-30T12:05:17.294Z,1.00
2022-11-30T12:08:09.101Z,1.13
2022-11-30T12:10:52.578Z,1.02
2022-11-30T12:13:29.671Z,1.30
2022-11-30T12:16:12.710Z,1.00
2022-11-30T12:18:57.603Z,0.95
2022-11-30T12:21:47.592Z,0.93
2022-11-30T12:24:54.511Z,1.00
2022-11-30T12:27:42.982Z,0.90
2022-11-30T12:30:22.289Z,0.85
2022-11-30T12:33:15.304Z,0.93
2022-11-30T12:36:08.575Z,0.82
2022-11-30T12:38:50.808Z,1.20
2022-11-30T12:41:39.251Z,1.00
2022-11-30T12:44:35.596Z,0.82
2022-11-30T12:47:28.000Z,0.77
2022-11-30T12:50:25.920Z,0.93
2022-11-30T12:53:08.856Z,0.80
2022-11-30T12:55:50.816Z,1.17
2022-11-30T12:58:37.437Z,0.90
2022-11-30T13:01:36.404Z,0.90
2022-11-30T13:04:17.253Z,0.90
2022-11-30T13:06:54.122Z,0.90
2022-11-30T13:09:35.772Z,0.57
2022-11-30T13:12:13.807Z,0.80
2022-11-30T13:14:45.755Z,0.85
2022-11-30T13:17:21.429Z,1.00
2022-11-30T13:20:04.675Z,0.95
2022-11-30T13:22:48.466Z,1.10
2022-11-30T13:26:06.147Z,1.00
2022-11-30T13:28:33.998Z,0.98
2022-11-30T13:31:13.341Z,1.00
2022-11-30T13:33:51.869Z,0.88
2022-11-30T13:36:34.181Z,0.85
2022-11-30T13:39:29.329Z,1.20
2022-11-30T13:42:57.394Z,0.93
2022-11-30T13:45:35.137Z,0.93
2022-11-30T13:48:32.673Z,1.00
2022-11-30T13:51:03.521Z,0.90
2022-11-30T13:53:37.845Z,1.00
2022-11-30T13:56:24.727Z,1.20
2022-11-30T13:59:47.366Z,1.10
2022-11-30T14:02:54.795Z,0.88
2022-11-30T14:05:37.304Z,0.88
2022-11-30T14:08:37.969Z,1.10
2022-11-30T14:11:41.370Z,1.00
2022-11-30T14:14:49.923Z,1.17
2022-11-30T14:17:26.116Z,1.00
2022-11-30T14:20:02.746Z,1.15
2022-11-30T14:22:34.189Z,1.25
2022-11-30T14:25:05.478Z,1.10
2022-11-30T14:27:39.300Z,1.00
2022-11-30T14:30:22.252Z,1.10
2022-11-30T14:33:07.006Z,1.27
2022-11-30T14:35:40.591Z,1.20
2022-11-30T14:38:26.321Z,1.10
2022-11-30T14:40:58.341Z,1.00
2022-11-30T14:43:30.267Z,1.15
2022-11-30T14:46:07.283Z,1.13
2022-11-30T14:48:40.762Z,0.93
2022-11-30T14:51:14.349Z,1.13
2022-11-30T14:53:56.240Z,0.88
2022-11-30T14:56:39.712Z,1.00
2022-11-30T14:59:31.529Z,1.08
2022-11-30T15:02:07.088Z,1.08
2022-11-30T15:04:39.826Z,0.95
2022-11-30T15:07:18.362Z,1.20
2022-11-30T15:09:55.748Z,1.13
2022-11-30T15:12:28.110Z,0.90
2022-11-30T15:15:17.120Z,1.35
2022-11-30T15:17:56.577Z,1.23
2022-11-30T15:20:33.038Z,1.13
2022-11-30T15:23:03.919Z,1.10
2022-11-30T15:25:42.420Z,1.10
2022-11-30T15:28:17.703Z,1.38
2022-11-30T15:30:51.406Z,1.00
2022-11-30T15:33:32.187Z,0.95
2022-11-30T15:36:19.201Z,1.02
2022-11-30T15:38:55.116Z,1.00
2022-11-30T15:41:27.959Z,1.13
2022-11-30T15:44:00.098Z,0.88
2022-11-30T15:46:44.271Z,1.35
2022-11-30T15:49:28.275Z,1.05
2022-11-30T15:52:09.598Z,1.40
2022-11-30T15:54:53.150Z,1.20
2022-11-30T15:57:25.292Z,1.02
2022-11-30T16:00:21.683Z,1.20
2022-11-30T16:02:52.531Z,1.20
2022-11-30T16:05:28.764Z,1.30
2022-11-30T16:08:03.853Z,1.33
2022-11-30T16:10:39.612Z,1.42
2022-11-30T16:13:10.761Z,1.30
2022-11-30T16:15:41.124Z,1.60
2022-11-30T16:18:19.419Z,1.42
2022-11-30T16:20:55.163Z,1.85
2022-11-30T16:23:26.357Z,2.00
2022-11-30T16:25:57.329Z,1.75
2022-11-30T16:28:27.923Z,1.70
2022-11-30T16:31:02.239Z,1.60
2022-11-30T16:33:32.224Z,1.70
2022-11-30T16:36:09.988Z,1.60
2022-11-30T16:38:40.027Z,1.40
2022-11-30T16:41:18.898Z,1.80
2022-11-30T16:43:51.482Z,1.75
2022-11-30T16:46:25.455Z,1.90
2022-11-30T16:48:56.318Z,1.85
2022-11-30T16:51:31.932Z,1.80
2022-11-30T16:54:02.436Z,1.90
2022-11-30T16:56:32.478Z,1.90
2022-11-30T16:59:03.099Z,2.00
2022-11-30T17:01:37.329Z,2.00
2022-11-30T17:04:19.957Z,2.50
2022-11-30T17:06:58.766Z,2.45
2022-11-30T17:09:34.849Z,2.58
2022-11-30T17:12:05.435Z,2.83
2022-11-30T17:14:35.833Z,2.97
2022-11-30T17:17:06.293Z,3.00
2022-11-30T17:19:38.192Z,2.78
2022-11-30T17:22:10.454Z,2.70
2022-11-30T17:24:40.840Z,2.70
2022-11-30T17:27:12.358Z,2.35
2022-11-30T17:29:43.651Z,2.38
2022-11-30T17:32:13.961Z,2.45
2022-11-30T17:34:44.865Z,2.78
2022-11-30T17:37:16.985Z,2.65
2022-11-30T17:39:47.460Z,2.22
2022-11-30T17:42:18.541Z,2.50
2022-11-30T17:44:49.784Z,2.13
2022-11-30T17:47:22.571Z,2.10
2022-11-30T17:49:53.511Z,2.10
2022-11-30T17:52:26.009Z,2.22
2022-11-30T17:54:56.539Z,1.88
2022-11-30T17:57:26.113Z,2.08
2022-11-30T17:59:56.528Z,2.00
2022-11-30T18:02:26.636Z,1.90
2022-11-30T18:04:57.452Z,1.80
2022-11-30T18:07:29.617Z,2.05
2022-11-30T18:10:02.132Z,2.40
2022-11-30T18:12:31.797Z,2.17
2022-11-30T18:15:02.342Z,2.63
2022-11-30T18:17:33.635Z,2.40
2022-11-30T18:20:04.384Z,2.22
2022-11-30T18:22:36.493Z,2.10
2022-11-30T18:25:07.818Z,1.95
2022-11-30T18:27:38.604Z,2.05
2022-11-30T18:30:11.084Z,2.10
2022-11-30T18:32:41.928Z,1.95
2022-11-30T18:35:13.411Z,2.10
2022-11-30T18:37:46.039Z,2.30
2022-11-30T18:40:17.165Z,1.92
2022-11-30T18:42:49.892Z,1.90
2022-11-30T18:45:20.652Z,2.03
2022-11-30T18:47:50.591Z,1.92
2022-11-30T18:50:21.549Z,1.88
2022-11-30T18:52:55.275Z,1.90
2022-11-30T18:55:26.868Z,2.20
2022-11-30T18:57:58.308Z,1.92
2022-11-30T19:00:29.466Z,1.90
2022-11-30T19:03:00.421Z,1.75
2022-11-30T19:05:38.656Z,1.75
2022-11-30T19:08:16.208Z,1.80
2022-11-30T19:10:46.863Z,1.80
2022-11-30T19:13:16.924Z,1.73
2022-11-30T19:15:47.332Z,1.92
2022-11-30T19:18:22.894Z,1.90
2022-11-30T19:20:53.787Z,1.90
2022-11-30T19:23:26.480Z,1.83
2022-11-30T19:26:03.280Z,1.95
2022-11-30T19:28:35.722Z,1.80
2022-11-30T19:31:12.558Z,1.90
2022-11-30T19:33:46.627Z,2.03
2022-11-30T19:36:19.863Z,1.80
2022-11-30T19:38:52.447Z,2.03
2022-11-30T19:41:23.803Z,1.95
2022-11-30T19:44:03.093Z,2.20
2022-11-30T19:46:34.996Z,2.17
2022-11-30T19:49:07.707Z,2.30
2022-11-30T19:51:38.785Z,2.40
2022-11-30T19:54:10.671Z,2.50
2022-11-30T19:56:43.040Z,2.80
2022-11-30T19:59:13.640Z,2.53
2022-11-30T20:01:44.504Z,2.60
2022-11-30T20:04:14.696Z,2.60
2022-11-30T20:06:45.706Z,2.72
2022-11-30T20:09:18.366Z,2.58
2022-11-30T20:11:48.966Z,2.67
2022-11-30T20:14:22.832Z,2.65
2022-11-30T20:16:53.547Z,2.55
2022-11-30T20:19:24.952Z,2.63
2022-11-30T20:21:55.642Z,2.45
2022-11-30T20:24:28.018Z,2.42
2022-11-30T20:26:58.876Z,2.50
2022-11-30T20:29:29.356Z,2.65
2022-11-30T20:32:00.434Z,2.40
2022-11-30T20:34:34.643Z,2.20
2022-11-30T20:37:06.597Z,2.15
2022-11-30T20:39:44.054Z,2.42
2022-11-30T20:42:16.205Z,2.38
2022-11-30T20:44:46.453Z,2.47
2022-11-30T20:47:16.880Z,2.40
2022-11-30T20:49:48.477Z,2.33
2022-11-30T20:52:18.674Z,2.55
2022-11-30T20:54:51.313Z,2.65
2022-11-30T20:57:21.301Z,2.50
2022-11-30T20:59:52.073Z,2.55
2022-11-30T21:02:22.325Z,2.58
2022-11-30T21:04:53.097Z,2.60
2022-11-30T21:07:23.200Z,2.78
2022-11-30T21:09:55.997Z,2.53
2022-11-30T21:12:26.049Z,2.35
2022-11-30T21:14:56.413Z,2.47
2022-11-30T21:17:27.081Z,2.60
2022-11-30T21:19:57.810Z,2.38
2022-11-30T21:22:30.331Z,2.38
2022-11-30T21:25:02.729Z,2.50
2022-11-30T21:27:32.748Z,2.30
2022-11-30T21:30:02.761Z,2.50
2022-11-30T21:32:32.744Z,2.20
2022-11-30T21:35:02.999Z,2.30
2022-11-30T21:37:33.288Z,2.30
2022-11-30T21:40:05.538Z,2.42
2022-11-30T21:42:35.456Z,2.20
2022-11-30T21:45:19.498Z,2.15
2022-11-30T21:47:49.686Z,2.40
2022-11-30T21:50:23.094Z,2.38
2022-11-30T21:52:57.091Z,2.25
2022-11-30T21:55:29.237Z,2.30
2022-11-30T21:57:59.634Z,2.28
2022-11-30T22:00:30.080Z,2.28
2022-11-30T22:03:00.231Z,1.95
2022-11-30T22:05:30.367Z,2.15
2022-11-30T22:08:00.791Z,2.20
2022-11-30T22:10:32.805Z,2.20
2022-11-30T22:13:02.313Z,2.40
2022-11-30T22:15:32.334Z,2.17
2022-11-30T22:18:02.357Z,2.38
2022-11-30T22:20:32.826Z,2.25
2022-11-30T22:23:03.845Z,2.40
2022-11-30T22:25:36.412Z,2.40
2022-11-30T22:28:07.218Z,2.70
2022-11-30T22:30:44.673Z,2.53
2022-11-30T22:33:14.639Z,2.60
2022-11-30T22:35:44.709Z,2.60
2022-11-30T22:38:16.791Z,2.92
2022-11-30T22:40:49.399Z,2.58
2022-11-30T22:43:19.229Z,2.38
2022-11-30T22:45:49.787Z,2.65
2022-11-30T22:48:20.435Z,2.53
2022-11-30T22:50:50.688Z,2.63
2022-11-30T22:53:20.792Z,2.60
2022-11-30T22:55:52.802Z,2.95
2022-11-30T22:58:23.353Z,2.65
2022-11-30T23:01:06.832Z,2.75
2022-11-30T23:03:37.140Z,2.67
2022-11-30T23:06:08.323Z,2.65
2022-11-30T23:08:39.989Z,2.83
2022-11-30T23:11:14.571Z,2.80
2022-11-30T23:13:46.449Z,3.00
2022-11-30T23:16:17.620Z,2.83
2022-11-30T23:18:50.944Z,2.78
2022-11-30T23:21:25.314Z,2.53
2022-11-30T23:23:56.851Z,3.00
2022-11-30T23:26:31.899Z,2.58
2022-11-30T23:29:05.731Z,2.70
2022-11-30T23:31:40.481Z,2.85
2022-11-30T23:34:20.249Z,2.55
2022-11-30T23:36:51.641Z,2.88
2022-11-30T23:39:23.770Z,2.65
2022-11-30T23:41:56.112Z,2.92
2022-11-30T23:44:26.388Z,2.50
2022-11-30T23:46:56.945Z,2.85
2022-11-30T23:49:28.027Z,2.80
2022-11-30T23:51:58.938Z,2.90
2022-11-30T23:54:28.982Z,2.80
2022-11-30T23:57:01.748Z,2.83
2022-11-30T23:59:32.226Z,2.47
